Time;durP1;ratioP1;P1;durP2;ratioP2;P2;SDS_P1;SDS_P2;PMS_P1;PMS_P2;Temp;Humidity;BMP_temperature;BMP_pressure;BME280_temperature;BME280_humidity;BME280_pressure;Samples;Min_cycle;Max_cycle;Signal;HPM_P1;HPM_P2
2023/01/13 00:02:00;;;;;;;62.53;4.05;;;7.90;99.90;;;;;;5092475;28;20036;-82
2023/01/13 00:04:25;;;;;;;39.78;2.53;;;7.90;99.90;;;;;;5075070;28;20055;-83
2023/01/13 00:06:51;;;;;;;42.80;3.20;;;7.80;99.90;;;;;;5074995;28;20047;-82
2023/01/13 00:09:17;;;;;;;44.10;3.40;;;7.70;99.90;;;;;;5075006;28;20037;-84
2023/01/13 00:11:43;;;;;;;56.80;3.88;;;7.70;99.90;;;;;;5075354;28;20094;-81
2023/01/13 00:14:08;;;;;;;41.58;3.63;;;7.70;99.90;;;;;;5074876;28;20127;-83
2023/01/13 00:16:34;;;;;;;56.38;3.33;;;7.60;99.90;;;;;;5075320;28;20037;-82
2023/01/13 00:19:00;;;;;;;64.53;4.75;;;7.50;99.90;;;;;;5075333;28;20040;-80
2023/01/13 00:21:26;;;;;;;37.00;4.22;;;7.50;99.90;;;;;;5077017;28;20079;-85
2023/01/13 00:23:53;;;;;;;83.47;5.43;;;7.40;99.90;;;;;;5076824;28;20548;-83
2023/01/13 00:26:21;;;;;;;50.10;4.72;;;7.50;99.90;;;;;;5076983;28;20119;-82
2023/01/13 00:28:47;;;;;;;44.80;3.10;;;7.40;99.90;;;;;;5076965;28;20117;-80
2023/01/13 00:31:18;;;;;;;62.53;5.20;;;7.30;99.90;;;;;;5076424;28;20040;-82
2023/01/13 00:33:45;;;;;;;31.42;2.78;;;7.40;99.90;;;;;;5077731;28;20127;-87
2023/01/13 00:36:12;;;;;;;53.85;4.38;;;7.50;99.90;;;;;;5075657;28;20056;-80
2023/01/13 00:38:39;;;;;;;48.20;3.97;;;7.40;99.90;;;;;;5074542;28;20044;-84
2023/01/13 00:41:07;;;;;;;40.65;3.13;;;7.30;99.90;;;;;;5075702;28;20044;-83
2023/01/13 00:43:35;;;;;;;40.95;2.88;;;7.40;99.90;;;;;;5075346;28;20055;-86
2023/01/13 00:46:01;;;;;;;34.53;3.97;;;7.30;99.90;;;;;;5074902;28;20079;-80
2023/01/13 00:48:28;;;;;;;37.83;2.85;;;7.30;99.90;;;;;;5074967;28;20043;-82
2023/01/13 00:50:56;;;;;;;60.20;3.55;;;7.40;99.90;;;;;;5073541;28;20052;-81
2023/01/13 00:53:22;;;;;;;44.05;4.95;;;7.40;99.90;;;;;;5073404;28;20062;-83
2023/01/13 00:55:48;;;;;;;67.85;4.55;;;7.40;99.90;;;;;;5074577;28;20097;-83
2023/01/13 00:58:14;;;;;;;40.80;2.70;;;7.50;99.90;;;;;;5073598;28;20350;-84
2023/01/13 01:00:40;;;;;;;48.03;3.75;;;7.40;99.90;;;;;;5075591;28;20131;-84
2023/01/13 01:03:11;;;;;;;62.72;4.05;;;7.30;99.90;;;;;;5074131;28;20472;-84
2023/01/13 01:05:38;;;;;;;46.22;3.50;;;7.30;99.90;;;;;;5074598;28;20040;-86
2023/01/13 01:08:04;;;;;;;49.28;3.75;;;7.20;99.90;;;;;;5075328;28;20368;-84
2023/01/13 01:10:30;;;;;;;40.60;3.10;;;7.20;99.90;;;;;;5057133;28;20087;-82
2023/01/13 01:12:56;;;;;;;45.88;2.83;;;7.20;99.90;;;;;;5056311;28;20080;-86
2023/01/13 01:15:22;;;;;;;54.30;4.35;;;7.30;99.90;;;;;;5074900;28;20052;-88
2023/01/13 01:17:47;;;;;;;54.30;3.42;;;7.30;99.90;;;;;;5073174;28;20037;-86
2023/01/13 01:20:13;;;;;;;47.80;3.40;;;7.30;99.90;;;;;;5073282;28;20045;-84
2023/01/13 01:22:40;;;;;;;63.15;4.88;;;7.30;99.90;;;;;;5074162;28;20036;-81
2023/01/13 01:25:06;;;;;;;35.88;3.03;;;7.40;99.90;;;;;;5073282;28;20115;-83
2023/01/13 01:27:33;;;;;;;42.78;4.20;;;7.40;99.90;;;;;;5074054;28;20468;-86
2023/01/13 01:29:58;;;;;;;43.55;4.18;;;7.50;99.90;;;;;;5074313;28;20119;-82
2023/01/13 01:32:24;;;;;;;46.63;4.90;;;7.40;99.90;;;;;;5074171;28;20041;-84
2023/01/13 01:34:50;;;;;;;51.25;3.65;;;7.50;99.90;;;;;;5056706;28;20044;-85
2023/01/13 01:37:16;;;;;;;64.33;6.17;;;7.50;99.90;;;;;;5073921;28;20045;-87
2023/01/13 01:39:42;;;;;;;49.72;3.53;;;7.40;99.90;;;;;;5059415;28;20051;-83
2023/01/13 01:45:21;;;;;;;51.55;5.18;;;7.40;99.90;;;;;;5074383;28;20044;-81
2023/01/13 01:47:52;;;;;;;55.85;4.40;;;7.30;99.90;;;;;;5072800;28;20047;-85
2023/01/13 01:50:18;;;;;;;61.88;4.00;;;7.30;99.90;;;;;;5074826;28;20132;-83
2023/01/13 01:52:52;;;;;;;55.45;4.60;;;7.30;99.90;;;;;;5073536;28;20095;-83
2023/01/13 01:55:27;;;;;;;76.60;5.90;;;7.20;99.90;;;;;;5074313;28;20106;-87
2023/01/13 01:57:58;;;;;;;64.97;5.32;;;7.20;99.90;;;;;;5073547;28;20048;-85
2023/01/13 02:00:26;;;;;;;61.22;4.07;;;7.10;99.90;;;;;;5072703;28;20468;-86
2023/01/13 02:02:52;;;;;;;48.72;5.05;;;7.10;99.90;;;;;;5072423;28;20037;-81
2023/01/13 02:05:18;;;;;;;82.60;4.75;;;7.10;99.90;;;;;;5073300;28;20048;-85
2023/01/13 02:07:48;;;;;;;46.90;3.80;;;7.10;99.90;;;;;;5074056;28;20036;-85
2023/01/13 02:10:17;;;;;;;65.15;4.70;;;7.10;99.90;;;;;;5074345;28;20044;-84
2023/01/13 02:12:44;;;;;;;54.42;4.70;;;7.10;99.90;;;;;;5057070;28;20052;-84
2023/01/13 02:15:10;;;;;;;52.40;4.90;;;7.00;99.90;;;;;;5074155;28;20128;-84
2023/01/13 02:17:47;;;;;;;55.08;4.10;;;7.00;99.90;;;;;;5075189;28;20088;-85
2023/01/13 02:20:50;;;;;;;50.58;3.75;;;7.10;99.90;;;;;;5075181;28;20045;-82
2023/01/13 02:26:57;;;;;;;64.70;4.88;;;6.90;99.90;;;;;;5076116;28;20055;-83
2023/01/13 02:32:32;;;;;;;63.70;5.03;;;6.90;99.90;;;;;;5077750;28;20044;-87
2023/01/13 02:35:13;;;;;;;56.72;4.00;;;6.90;99.90;;;;;;5111965;28;20044;-84
2023/01/13 02:37:42;;;;;;;60.60;4.47;;;6.80;99.90;;;;;;5076988;28;20048;-83
2023/01/13 02:40:58;;;;;;;74.10;5.05;;;6.80;99.90;;;;;;5078105;28;20123;-82
2023/01/13 02:46:32;;;;;;;53.17;3.85;;;6.80;99.90;;;;;;5055436;28;20040;-82
2023/01/13 02:49:04;;;;;;;59.10;3.95;;;6.80;99.90;;;;;;5084634;28;20080;-83
2023/01/13 02:51:31;;;;;;;56.72;5.15;;;6.80;99.90;;;;;;5078476;28;20044;-85
2023/01/13 02:54:07;;;;;;;81.50;6.68;;;6.80;99.90;;;;;;5077807;28;20385;-83
2023/01/13 02:56:38;;;;;;;45.25;4.00;;;6.80;99.90;;;;;;5077924;28;20102;-82
2023/01/13 02:59:05;;;;;;;52.20;3.58;;;6.80;99.90;;;;;;5077972;28;20381;-87
2023/01/13 03:01:31;;;;;;;63.35;4.60;;;6.90;99.90;;;;;;5077288;28;20048;-82
2023/01/13 03:03:56;;;;;;;64.38;5.18;;;6.90;99.90;;;;;;5076311;28;20174;-82
2023/01/13 03:06:46;;;;;;;57.67;4.72;;;7.10;99.90;;;;;;5060033;28;20048;-84
2023/01/13 03:09:25;;;;;;;65.80;4.40;;;7.00;99.90;;;;;;5078163;28;20101;-83
2023/01/13 03:12:01;;;;;;;62.60;5.22;;;7.10;99.90;;;;;;5076872;28;20048;-84
2023/01/13 03:14:40;;;;;;;63.50;4.07;;;7.20;99.90;;;;;;5076900;28;20052;-83
2023/01/13 03:17:30;;;;;;;55.88;4.93;;;7.30;99.90;;;;;;5077633;28;20044;-82
2023/01/13 03:20:06;;;;;;;75.32;6.82;;;7.30;99.90;;;;;;5060111;28;20033;-80
2023/01/13 03:22:48;;;;;;;55.28;4.60;;;7.40;99.90;;;;;;5076790;28;20033;-82
2023/01/13 03:25:46;;;;;;;55.38;5.95;;;7.40;99.90;;;;;;5077735;28;20040;-82
2023/01/13 03:28:22;;;;;;;50.22;4.60;;;7.40;99.90;;;;;;5076976;28;20044;-85
2023/01/13 03:30:55;;;;;;;66.93;5.20;;;7.40;99.90;;;;;;5076619;28;20074;-79
2023/01/13 03:33:32;;;;;;;65.97;6.03;;;7.50;99.90;;;;;;5077424;28;20106;-81
2023/01/13 03:36:04;;;;;;;62.55;4.53;;;7.40;99.90;;;;;;5076945;28;20123;-81
2023/01/13 03:38:38;;;;;;;76.30;5.13;;;7.40;99.90;;;;;;5075776;28;20044;-82
2023/01/13 03:41:08;;;;;;;64.57;7.00;;;7.50;99.90;;;;;;5075649;28;20080;-82
2023/01/13 03:46:44;;;;;;;64.88;5.43;;;7.40;99.90;;;;;;5075584;28;20067;-84
2023/01/13 03:49:15;;;;;;;81.10;6.15;;;7.50;99.90;;;;;;5075925;28;20048;-83
2023/01/13 03:51:43;;;;;;;35.70;2.83;;;7.50;99.90;;;;;;5060173;28;20051;-79
2023/01/13 03:54:12;;;;;;;60.83;5.95;;;7.40;99.90;;;;;;5076258;28;20040;-83
2023/01/13 03:56:52;;;;;;;78.70;6.88;;;7.40;99.90;;;;;;5076659;28;20037;-82
2023/01/13 03:59:28;;;;;;;46.10;4.35;;;7.40;99.90;;;;;;5076539;28;20055;-83
2023/01/13 04:02:01;;;;;;;49.95;4.30;;;7.30;99.90;;;;;;5076302;28;20039;-82
2023/01/13 04:04:44;;;;;;;60.08;4.45;;;7.20;99.90;;;;;;5059351;28;20044;-83
2023/01/13 04:07:39;;;;;;;60.05;4.18;;;7.30;99.90;;;;;;5075804;28;20049;-82
2023/01/13 04:10:08;;;;;;;59.28;5.03;;;7.30;99.90;;;;;;5075915;28;20414;-80
2023/01/13 04:13:03;;;;;;;70.18;5.85;;;7.30;99.90;;;;;;5075476;28;20127;-82
2023/01/13 04:15:33;;;;;;;68.57;5.28;;;7.40;99.90;;;;;;5075693;28;20124;-82
2023/01/13 04:18:09;;;;;;;70.10;6.20;;;7.50;99.90;;;;;;5074875;28;20052;-82
2023/01/13 04:20:35;;;;;;;75.47;5.53;;;7.60;99.90;;;;;;5075498;28;20071;-82
2023/01/13 04:23:01;;;;;;;75.68;5.40;;;7.60;99.90;;;;;;5076904;28;20084;-82
2023/01/13 04:25:26;;;;;;;66.43;5.18;;;7.60;99.90;;;;;;5075099;28;20063;-80
2023/01/13 04:27:52;;;;;;;59.13;5.03;;;7.60;99.90;;;;;;5074529;28;20101;-79
2023/01/13 04:30:18;;;;;;;75.65;5.75;;;7.60;99.90;;;;;;5074981;28;20111;-80
2023/01/13 04:32:43;;;;;;;58.45;4.32;;;7.50;99.90;;;;;;5076198;28;20046;-81
2023/01/13 04:35:09;;;;;;;58.95;4.95;;;7.50;99.90;;;;;;5074760;28;20495;-83
2023/01/13 04:37:35;;;;;;;60.67;5.03;;;7.50;99.90;;;;;;5075905;28;20499;-81
2023/01/13 04:40:01;;;;;;;73.65;5.57;;;7.50;99.90;;;;;;5075697;28;20127;-83
2023/01/13 04:42:26;;;;;;;60.05;3.83;;;7.40;99.90;;;;;;5058390;28;20427;-82
2023/01/13 04:44:52;;;;;;;75.53;4.57;;;7.40;99.90;;;;;;5074062;28;20044;-82
2023/01/13 04:47:18;;;;;;;60.28;4.85;;;7.40;99.90;;;;;;5056795;28;20040;-83
2023/01/13 04:49:44;;;;;;;45.05;4.55;;;7.30;99.90;;;;;;5057320;28;20455;-78
2023/01/13 04:52:09;;;;;;;62.20;4.45;;;7.30;99.90;;;;;;5073658;28;20066;-80
2023/01/13 04:54:35;;;;;;;35.42;3.22;;;7.40;99.90;;;;;;5073728;28;20128;-80
2023/01/13 04:57:01;;;;;;;53.78;6.13;;;7.40;99.90;;;;;;5073748;28;20047;-81
2023/01/13 04:59:26;;;;;;;70.10;5.53;;;7.30;99.90;;;;;;5073761;28;20487;-80
2023/01/13 05:01:52;;;;;;;51.30;4.55;;;7.40;99.90;;;;;;5057404;28;20044;-82
2023/01/13 05:04:18;;;;;;;57.35;4.45;;;7.40;99.90;;;;;;5074783;28;20100;-83
2023/01/13 05:06:44;;;;;;;66.13;5.43;;;7.20;99.90;;;;;;5056437;28;20045;-81
2023/01/13 05:09:11;;;;;;;57.10;6.18;;;7.30;99.90;;;;;;5074211;28;20139;-80
2023/01/13 05:17:08;;;;;;;45.60;4.47;;;7.40;99.90;;;;;;5075920;28;20040;-82
2023/01/13 05:19:37;;;;;;;52.22;5.28;;;7.40;99.90;;;;;;5075000;28;20107;-81
2023/01/13 05:27:32;;;;;;;44.60;3.90;;;7.40;99.90;;;;;;5074954;28;20052;-79
2023/01/13 05:29:58;;;;;;;54.08;4.78;;;7.50;99.90;;;;;;5074150;28;20040;-77
2023/01/13 05:32:26;;;;;;;46.30;4.10;;;7.40;99.90;;;;;;5073153;28;20045;-82
2023/01/13 05:34:54;;;;;;;29.80;2.50;;;7.40;99.90;;;;;;5074441;28;20544;-82
2023/01/13 05:37:20;;;;;;;49.17;3.70;;;7.40;99.90;;;;;;5073067;28;20430;-77
2023/01/13 05:45:15;;;;;;;34.10;2.80;;;7.50;99.90;;;;;;5074637;28;20439;-79
2023/01/13 05:47:40;;;;;;;43.80;3.53;;;7.50;99.90;;;;;;5074411;28;20040;-79
2023/01/13 05:50:06;;;;;;;44.65;3.83;;;7.50;99.90;;;;;;5056192;28;20101;-82
2023/01/13 05:52:32;;;;;;;37.83;3.05;;;7.50;99.90;;;;;;5074507;28;20457;-79
2023/01/13 05:54:58;;;;;;;36.05;2.65;;;7.40;99.90;;;;;;5074568;28;20083;-81
2023/01/13 05:57:24;;;;;;;43.72;3.55;;;7.40;99.90;;;;;;5072994;28;20044;-82
2023/01/13 05:59:49;;;;;;;39.13;4.38;;;7.50;99.90;;;;;;5073958;28;20121;-81
2023/01/13 06:02:15;;;;;;;33.20;3.28;;;7.50;99.90;;;;;;5076268;28;20468;-79
2023/01/13 06:04:41;;;;;;;42.80;4.82;;;7.50;99.90;;;;;;5078398;28;20488;-81
2023/01/13 06:07:06;;;;;;;49.90;3.67;;;7.50;99.90;;;;;;5079418;28;20072;-78
2023/01/13 06:09:37;;;;;;;49.28;3.22;;;7.40;99.90;;;;;;5060799;28;20045;-82
2023/01/13 06:12:03;;;;;;;34.67;3.60;;;7.50;99.90;;;;;;5078601;28;20366;-79
2023/01/13 06:14:38;;;;;;;28.33;2.83;;;7.50;99.90;;;;;;5060135;28;20044;-81
2023/01/13 06:17:12;;;;;;;36.53;2.10;;;7.60;99.90;;;;;;5078262;28;20097;-83
2023/01/13 06:19:38;;;;;;;42.47;3.20;;;7.60;99.90;;;;;;5078001;28;20052;-78
2023/01/13 06:22:24;;;;;;;33.67;3.33;;;7.60;99.90;;;;;;5078067;28;20087;-79
2023/01/13 06:24:54;;;;;;;34.65;3.35;;;7.60;99.90;;;;;;5078252;28;20516;-80
2023/01/13 06:27:21;;;;;;;31.42;2.45;;;7.70;99.90;;;;;;5078895;28;20051;-80
2023/01/13 06:29:47;;;;;;;31.20;2.67;;;7.70;99.90;;;;;;5076730;28;20553;-79
2023/01/13 06:32:18;;;;;;;26.88;2.88;;;7.80;99.90;;;;;;5077957;28;20043;-82
2023/01/13 06:34:48;;;;;;;24.95;2.63;;;7.80;99.90;;;;;;5077612;28;20499;-78
2023/01/13 06:37:18;;;;;;;29.83;2.67;;;7.80;99.90;;;;;;5078034;28;20048;-80
2023/01/13 06:39:45;;;;;;;20.33;2.45;;;7.90;99.90;;;;;;5095146;28;20043;-79
2023/01/13 06:44:55;;;;;;;29.75;2.72;;;7.90;99.90;;;;;;5076294;28;20561;-80
2023/01/13 06:47:21;;;;;;;24.98;2.50;;;7.90;99.90;;;;;;5110537;28;20048;-81
2023/01/13 06:49:47;;;;;;;27.92;2.63;;;7.90;99.90;;;;;;5059971;28;20401;-78
2023/01/13 06:52:13;;;;;;;30.00;2.38;;;7.90;99.90;;;;;;5077084;28;20044;-79
2023/01/13 06:54:39;;;;;;;34.13;3.00;;;7.90;99.90;;;;;;5077323;28;20128;-80
2023/01/13 06:57:04;;;;;;;21.40;1.73;;;7.90;99.90;;;;;;5075546;28;20559;-80
2023/01/13 06:59:33;;;;;;;33.97;2.97;;;7.90;99.90;;;;;;5076772;28;20052;-80
2023/01/13 07:01:59;;;;;;;23.08;1.10;;;7.90;99.90;;;;;;5075674;28;20040;-80
2023/01/13 07:04:24;;;;;;;22.75;2.20;;;8.00;99.90;;;;;;5076817;28;20040;-77
2023/01/13 07:06:50;;;;;;;20.67;1.88;;;8.00;99.90;;;;;;5076742;28;20392;-82
2023/01/13 07:09:16;;;;;;;34.85;2.28;;;8.00;99.90;;;;;;5058690;28;20490;-80
2023/01/13 07:11:41;;;;;;;30.38;2.75;;;7.90;99.90;;;;;;5076806;28;20118;-79
2023/01/13 07:16:53;;;;;;;31.40;2.78;;;8.00;99.90;;;;;;5076126;28;20045;-81
2023/01/13 07:19:22;;;;;;;27.60;1.73;;;8.00;99.90;;;;;;5075743;28;20048;-80
2023/01/13 07:21:51;;;;;;;22.35;1.17;;;7.90;99.90;;;;;;5059935;28;20076;-83
2023/01/13 07:24:18;;;;;;;27.17;2.33;;;7.90;99.90;;;;;;5079600;28;20079;-79
2023/01/13 07:26:44;;;;;;;30.13;1.88;;;7.90;99.90;;;;;;5081725;28;20040;-80
2023/01/13 07:29:11;;;;;;;25.80;1.70;;;7.90;99.90;;;;;;5066754;28;20032;-80
2023/01/13 07:31:37;;;;;;;31.57;2.53;;;7.90;99.90;;;;;;5083647;28;20044;-81
2023/01/13 07:34:04;;;;;;;28.70;1.98;;;7.90;99.90;;;;;;5080909;28;20282;-81
2023/01/13 07:36:29;;;;;;;31.60;2.10;;;7.90;99.90;;;;;;5078481;28;20392;-82
2023/01/13 07:38:55;;;;;;;27.70;1.73;;;7.90;99.90;;;;;;5078293;28;20036;-82
2023/01/13 07:44:06;;;;;;;34.08;1.65;;;7.90;99.90;;;;;;5078463;28;20476;-79
2023/01/13 07:46:32;;;;;;;43.00;2.53;;;7.80;99.90;;;;;;5080398;28;20037;-80
2023/01/13 07:48:58;;;;;;;32.35;3.63;;;7.80;99.90;;;;;;5085628;28;20128;-81
2023/01/13 07:51:24;;;;;;;30.27;2.03;;;7.90;99.90;;;;;;5081162;28;20075;-80
2023/01/13 07:53:50;;;;;;;32.35;2.13;;;7.80;99.90;;;;;;5077611;28;20123;-79
2023/01/13 07:56:15;;;;;;;35.33;2.67;;;7.80;99.90;;;;;;5076953;28;20048;-80
2023/01/13 07:58:41;;;;;;;33.33;1.88;;;7.80;99.90;;;;;;5075302;28;20044;-81
2023/01/13 08:01:12;;;;;;;26.20;1.70;;;7.80;99.90;;;;;;5075207;28;20096;-80
2023/01/13 08:03:39;;;;;;;16.52;1.42;;;7.70;99.90;;;;;;5076217;28;20437;-80
2023/01/13 08:06:05;;;;;;;32.70;2.25;;;7.70;99.90;;;;;;5074588;28;20037;-83
2023/01/13 08:08:31;;;;;;;28.10;2.05;;;7.60;99.90;;;;;;5075497;28;20495;-79
2023/01/13 08:10:59;;;;;;;31.52;3.20;;;7.60;99.90;;;;;;5074349;28;20051;-78
2023/01/13 08:13:25;;;;;;;39.28;2.50;;;7.60;99.90;;;;;;5074982;28;20061;-79
2023/01/13 08:15:53;;;;;;;28.85;2.50;;;7.60;99.90;;;;;;5075224;28;20040;-78
2023/01/13 08:18:21;;;;;;;38.03;2.42;;;7.60;99.90;;;;;;5074511;28;20043;-79
2023/01/13 08:20:53;;;;;;;27.27;2.75;;;7.50;99.90;;;;;;5074308;28;20127;-79
2023/01/13 08:23:22;;;;;;;37.70;2.83;;;7.50;99.90;;;;;;5074458;28;20484;-79
2023/01/13 08:25:49;;;;;;;43.90;3.58;;;7.50;99.90;;;;;;5074275;28;20431;-80
2023/01/13 08:28:15;;;;;;;36.13;2.60;;;7.40;99.90;;;;;;5074226;28;20040;-81
2023/01/13 08:30:41;;;;;;;37.70;2.58;;;7.40;99.90;;;;;;5075142;28;20048;-79
2023/01/13 08:33:09;;;;;;;35.78;2.22;;;7.50;99.90;;;;;;5075166;28;20040;-80
2023/01/13 08:35:37;;;;;;;30.88;3.17;;;7.40;99.90;;;;;;5074282;28;20047;-82
2023/01/13 08:38:04;;;;;;;38.60;3.05;;;7.40;99.90;;;;;;5057376;28;20052;-81
2023/01/13 08:40:30;;;;;;;36.08;2.45;;;7.50;99.90;;;;;;5074938;28;20039;-81
2023/01/13 08:42:57;;;;;;;37.28;4.13;;;7.50;99.90;;;;;;5075238;28;20047;-79
2023/01/13 08:45:22;;;;;;;37.40;3.72;;;7.50;99.90;;;;;;5074637;28;20089;-79
2023/01/13 08:47:48;;;;;;;33.45;2.47;;;7.50;99.90;;;;;;5074466;28;20149;-81
2023/01/13 08:50:14;;;;;;;37.78;2.78;;;7.50;99.90;;;;;;5108137;28;20051;-81
2023/01/13 08:52:40;;;;;;;32.17;3.17;;;7.50;99.90;;;;;;5073228;28;20040;-79
2023/01/13 08:55:07;;;;;;;28.95;2.20;;;7.50;99.90;;;;;;5074493;28;20040;-81
2023/01/13 08:57:33;;;;;;;33.30;2.97;;;7.50;99.90;;;;;;5073036;28;20047;-78
2023/01/13 08:59:59;;;;;;;27.33;2.15;;;7.50;99.90;;;;;;5074293;28;20080;-81
2023/01/13 09:02:25;;;;;;;36.25;1.90;;;7.50;99.90;;;;;;5074248;28;20129;-80
2023/01/13 09:04:52;;;;;;;40.38;3.00;;;7.50;99.90;;;;;;5073029;28;20480;-81
2023/01/13 09:07:18;;;;;;;37.97;4.10;;;7.60;99.90;;;;;;5074446;28;20041;-80
2023/01/13 09:09:44;;;;;;;35.53;2.42;;;7.60;99.90;;;;;;5074229;28;20043;-78
2023/01/13 09:15:01;;;;;;;33.38;2.42;;;7.60;99.90;;;;;;5072957;28;20050;-81
2023/01/13 09:17:27;;;;;;;42.10;2.85;;;7.60;99.90;;;;;;5074865;28;20062;-79
2023/01/13 09:19:52;;;;;;;34.38;2.35;;;7.60;99.90;;;;;;5073862;28;20127;-80
2023/01/13 09:22:19;;;;;;;38.00;2.75;;;7.60;99.90;;;;;;5073806;28;20036;-79
2023/01/13 09:24:45;;;;;;;47.63;3.45;;;7.70;99.90;;;;;;5073876;28;20045;-79
2023/01/13 09:27:13;;;;;;;38.33;3.42;;;7.70;99.90;;;;;;5074226;28;20040;-80
2023/01/13 09:29:39;;;;;;;40.22;2.65;;;7.70;99.90;;;;;;5074231;28;20032;-81
2023/01/13 09:32:06;;;;;;;31.10;2.72;;;7.60;99.90;;;;;;5075175;28;20060;-81
2023/01/13 09:37:17;;;;;;;59.60;4.78;;;7.70;99.90;;;;;;5073323;28;20072;-79
2023/01/13 09:39:44;;;;;;;27.88;2.63;;;7.70;99.90;;;;;;5056015;28;20087;-80
2023/01/13 09:45:21;;;;;;;39.83;2.50;;;7.80;99.90;;;;;;5072279;28;20054;-79
2023/01/13 09:47:47;;;;;;;32.88;3.00;;;8.00;99.90;;;;;;5073824;28;20113;-80
2023/01/13 09:50:12;;;;;;;25.23;2.58;;;7.90;99.90;;;;;;5073694;28;20045;-79
2023/01/13 09:52:40;;;;;;;27.70;2.10;;;8.00;99.90;;;;;;5073536;28;20123;-80
2023/01/13 09:55:21;;;;;;;49.35;4.38;;;8.00;99.90;;;;;;5072289;28;20080;-80
2023/01/13 09:57:47;;;;;;;31.75;2.35;;;8.00;99.90;;;;;;5074613;28;20044;-79
2023/01/13 10:00:27;;;;;;;45.90;4.03;;;8.10;99.90;;;;;;5073654;28;20072;-81
2023/01/13 10:03:24;;;;;;;42.15;2.78;;;8.00;99.90;;;;;;5073933;28;20040;-80
2023/01/13 10:05:55;;;;;;;42.97;2.88;;;8.10;99.90;;;;;;5070149;28;20083;-79
2023/01/13 10:08:23;;;;;;;42.70;2.63;;;8.00;99.90;;;;;;5073553;28;20041;-77
2023/01/13 10:10:54;;;;;;;40.92;3.38;;;8.00;99.90;;;;;;5055754;28;20055;-79
2023/01/13 10:13:28;;;;;;;34.38;2.83;;;8.00;99.90;;;;;;5055663;28;20171;-80
2023/01/13 10:16:22;;;;;;;30.45;2.30;;;7.90;99.90;;;;;;5074033;28;20127;-79
2023/01/13 10:19:02;;;;;;;32.72;4.18;;;7.90;99.90;;;;;;5073874;28;20048;-79
2023/01/13 10:21:52;;;;;;;28.55;2.30;;;7.90;99.90;;;;;;5074295;28;20040;-78
2023/01/13 10:24:48;;;;;;;45.13;4.45;;;7.80;99.90;;;;;;5073542;28;20040;-79
2023/01/13 10:27:35;;;;;;;37.50;2.25;;;7.80;99.90;;;;;;5073994;28;20048;-80
2023/01/13 10:30:34;;;;;;;49.15;3.20;;;7.80;99.90;;;;;;5106376;28;20131;-81
2023/01/13 10:33:08;;;;;;;43.97;3.55;;;7.80;99.90;;;;;;5069701;28;20138;-79
2023/01/13 10:35:50;;;;;;;43.50;3.35;;;7.90;99.90;;;;;;5072710;28;20055;-78
2023/01/13 10:38:37;;;;;;;43.45;3.20;;;7.90;99.90;;;;;;5073596;28;20119;-78
2023/01/13 10:41:24;;;;;;;49.05;3.33;;;8.00;99.90;;;;;;5072786;28;20063;-78
2023/01/13 10:44:01;;;;;;;29.73;2.45;;;8.00;99.90;;;;;;5072726;28;20033;-80
2023/01/13 10:46:27;;;;;;;37.40;3.92;;;8.10;99.90;;;;;;5073755;28;20118;-79
2023/01/13 10:48:59;;;;;;;28.17;2.25;;;8.10;99.90;;;;;;5075930;28;20044;-79
2023/01/13 10:51:37;;;;;;;28.75;1.92;;;8.00;99.90;;;;;;5077609;28;20047;-81
2023/01/13 10:54:11;;;;;;;42.58;4.78;;;8.00;99.90;;;;;;5077015;28;20044;-80
2023/01/13 10:56:42;;;;;;;43.65;3.40;;;8.00;99.90;;;;;;5059992;28;20052;-79
2023/01/13 10:59:21;;;;;;;38.42;2.33;;;8.00;99.90;;;;;;5077341;28;20117;-80
2023/01/13 11:02:02;;;;;;;42.25;3.53;;;8.00;99.90;;;;;;5076816;28;20059;-80
2023/01/13 11:04:30;;;;;;;37.95;2.75;;;8.10;99.90;;;;;;5076986;28;20129;-79
2023/01/13 11:06:57;;;;;;;40.33;3.70;;;8.00;99.90;;;;;;5076631;28;20492;-80
2023/01/13 11:09:25;;;;;;;31.48;2.60;;;8.00;99.90;;;;;;5077500;28;20418;-79
2023/01/13 11:11:54;;;;;;;49.47;3.78;;;8.10;99.90;;;;;;5075990;28;20047;-80
2023/01/13 11:14:38;;;;;;;30.75;2.17;;;8.00;99.90;;;;;;5077354;28;20061;-78
2023/01/13 11:17:25;;;;;;;39.60;3.13;;;8.00;99.90;;;;;;5077507;28;20123;-78
2023/01/13 11:20:19;;;;;;;36.75;3.28;;;7.90;99.90;;;;;;5078039;28;20079;-80
2023/01/13 11:22:51;;;;;;;33.22;2.33;;;7.90;99.90;;;;;;5074989;28;20080;-82
2023/01/13 11:25:31;;;;;;;37.70;2.78;;;7.90;99.90;;;;;;5076676;28;20037;-81
2023/01/13 11:28:03;;;;;;;43.55;3.08;;;7.90;99.90;;;;;;5076023;28;20484;-79
2023/01/13 11:31:03;;;;;;;33.75;2.53;;;7.90;99.90;;;;;;5076844;28;20043;-81
2023/01/13 11:33:37;;;;;;;28.15;1.95;;;8.00;99.90;;;;;;5073627;28;20080;-80
2023/01/13 11:36:27;;;;;;;35.13;2.33;;;8.00;99.90;;;;;;5077455;28;20102;-81
2023/01/13 11:38:57;;;;;;;43.33;4.05;;;8.00;99.90;;;;;;5075128;28;20080;-81
2023/01/13 11:42:19;;;;;;;32.05;2.88;;;8.00;99.90;;;;;;5075735;28;20044;-81
2023/01/13 11:44:43;;;;;;;41.17;3.53;;;8.00;99.90;;;;;;5075951;28;20109;-81
2023/01/13 11:47:12;;;;;;;45.67;3.20;;;7.90;99.90;;;;;;5058858;28;20052;-81
2023/01/13 11:49:38;;;;;;;34.47;2.88;;;7.90;99.90;;;;;;5076087;28;20079;-83
2023/01/13 11:52:19;;;;;;;35.28;2.35;;;7.90;99.90;;;;;;5076459;28;20032;-82
2023/01/13 11:55:06;;;;;;;27.80;1.70;;;7.90;99.90;;;;;;5076727;28;20079;-79
2023/01/13 11:57:44;;;;;;;41.60;2.95;;;8.00;99.90;;;;;;5059173;28;20044;-79
2023/01/13 12:00:19;;;;;;;36.90;3.97;;;8.00;99.90;;;;;;5077201;28;20041;-80
2023/01/13 12:02:51;;;;;;;48.75;3.80;;;8.00;99.90;;;;;;5076712;28;20123;-80
2023/01/13 12:05:40;;;;;;;38.78;2.65;;;8.10;99.90;;;;;;5075751;28;20036;-80
2023/01/13 12:08:11;;;;;;;42.20;2.88;;;8.10;99.90;;;;;;5057796;28;20044;-79
2023/01/13 12:10:43;;;;;;;33.47;2.40;;;8.10;99.90;;;;;;5074890;28;20127;-80
2023/01/13 12:14:03;;;;;;;32.28;3.20;;;8.10;99.90;;;;;;5074770;28;20059;-79
2023/01/13 12:16:30;;;;;;;35.60;2.90;;;8.20;99.90;;;;;;5075654;28;20507;-78
2023/01/13 12:19:14;;;;;;;29.48;2.35;;;8.20;99.90;;;;;;5075043;28;20059;-79
2023/01/13 12:22:08;;;;;;;31.33;2.17;;;8.20;99.90;;;;;;5076325;28;20048;-81
2023/01/13 12:24:36;;;;;;;39.90;3.03;;;8.20;99.90;;;;;;5076554;28;20048;-79
2023/01/13 12:27:30;;;;;;;26.55;1.92;;;8.30;99.90;;;;;;5076279;28;20044;-78
2023/01/13 12:29:58;;;;;;;39.72;3.65;;;8.40;99.90;;;;;;5074639;28;20036;-77
2023/01/13 12:32:36;;;;;;;35.15;3.03;;;8.40;99.90;;;;;;5075173;28;20115;-78
2023/01/13 12:35:08;;;;;;;36.25;2.67;;;8.40;99.90;;;;;;5074804;28;20049;-77
2023/01/13 12:37:51;;;;;;;36.90;1.88;;;8.50;99.90;;;;;;5074986;28;20392;-78
2023/01/13 12:40:37;;;;;;;30.55;1.95;;;8.50;99.90;;;;;;5075406;28;20036;-78
2023/01/13 12:45:50;;;;;;;;;;;8.50;99.90;;;;;;5075302;28;20048;-77
2023/01/13 12:48:56;;;;;;;26.80;2.60;;;8.50;99.90;;;;;;5075328;28;20004;-78
2023/01/13 12:51:26;;;;;;;24.58;3.10;;;8.60;99.90;;;;;;5073570;28;20106;-79
2023/01/13 12:53:53;;;;;;;28.02;1.60;;;8.50;99.90;;;;;;5074194;28;20040;-79
2023/01/13 12:56:28;;;;;;;;;;;8.50;99.90;;;;;;5073759;28;20082;-79
2023/01/13 12:59:15;;;;;;;22.00;1.73;;;8.40;99.90;;;;;;5074644;28;19916;-78
2023/01/13 13:01:43;;;;;;;27.88;2.58;;;8.40;99.90;;;;;;5075554;28;20374;-79
2023/01/13 13:04:17;;;;;;;25.63;1.70;;;8.40;99.90;;;;;;5075954;28;20372;-78
2023/01/13 13:06:53;;;;;;;28.65;1.80;;;8.40;99.90;;;;;;5074122;28;20051;-78
2023/01/13 13:09:40;;;;;;;21.20;1.65;;;8.30;99.90;;;;;;5073812;28;20032;-79
2023/01/13 13:15:34;;;;;;;25.27;1.85;;;8.50;99.90;;;;;;5064963;28;20055;-77
2023/01/13 13:18:16;;;;;;;37.45;2.28;;;8.60;99.90;;;;;;5074649;28;20101;-79
2023/01/13 13:21:07;;;;;;;17.98;1.90;;;8.70;99.90;;;;;;5074939;28;20049;-77
2023/01/13 13:23:34;;;;;;;20.30;1.40;;;8.70;99.90;;;;;;5074891;28;20105;-78
2023/01/13 13:26:15;;;;;;;25.15;1.88;;;8.70;99.90;;;;;;5073057;28;20136;-79
2023/01/13 13:28:59;;;;;;;17.65;1.50;;;8.80;99.90;;;;;;5073684;28;20176;-76
2023/01/13 13:31:43;;;;;;;20.20;1.70;;;8.80;99.90;;;;;;5074594;28;20342;-79
2023/01/13 13:34:33;;;;;;;19.02;1.55;;;8.80;99.90;;;;;;5074795;28;20323;-77
2023/01/13 13:37:23;;;;;;;31.33;1.90;;;8.80;99.90;;;;;;5075894;28;20067;-76
2023/01/13 13:48:29;;;;;;;19.55;1.15;;;8.80;99.90;;;;;;5074720;28;20469;-79
2023/01/13 13:51:01;;;;;;;15.30;1.35;;;8.90;99.90;;;;;;5076598;28;20059;-78
2023/01/13 13:53:39;;;;;;;15.55;1.38;;;8.90;99.90;;;;;;5077320;28;20422;-77
2023/01/13 13:56:20;;;;;;;12.95;1.15;;;8.80;99.90;;;;;;5077069;28;20076;-79
2023/01/13 13:58:48;;;;;;;23.38;1.88;;;8.80;99.90;;;;;;5076009;28;20071;-78
2023/01/13 14:01:32;;;;;;;23.55;1.52;;;8.60;99.90;;;;;;5073993;28;20098;-79
2023/01/13 14:04:11;;;;;;;28.60;2.15;;;8.60;99.90;;;;;;5074305;28;20040;-78
2023/01/13 14:06:37;;;;;;;16.38;1.45;;;8.50;99.90;;;;;;5073976;28;20499;-79
2023/01/13 14:09:03;;;;;;;28.00;2.55;;;8.50;99.90;;;;;;5073095;28;20076;-78
2023/01/13 14:11:32;;;;;;;25.60;1.63;;;8.40;99.90;;;;;;5057033;28;20446;-79
2023/01/13 14:14:06;;;;;;;23.77;1.80;;;8.30;99.90;;;;;;5074581;28;20045;-78
2023/01/13 14:16:33;;;;;;;21.92;1.88;;;8.20;99.90;;;;;;5056891;28;20099;-77